Emerald Princess — ZCDP8 — position and weather

sailwx.info

Track history (hours):
 
Tides and Currents Weather Stations Pressure Air Temp Water Temp Dewpoint Dewpoint Depression Visibility Wind Speed Wind Dir Waves Ship Positions

Emerald Princess

Last reported at 2017-Nov-19 23:00 UTC. Time now 2017-Nov-20 03:58 UTC.
Position N 30°06' W 117°54'.

Type: Ship. MMSI: 310531000.

Wind from 330 at 20 knots

Barometer 1014.9 mb
Air temperature 17.5 ° C
Visibility: greater than 10.8 NM
Dewpoint 15.1 ° C
Water temperature 19.0 ° C

Date/timePositionNaut miles runAvg speedWind from/ knotsBaromVisibWave heightAir tempDewpointWater temp
2017-Nov-19 23:00N 30°06' W 117°54'2417.2 330 / 201014.910.8 17.515.119.0
2017-Nov-19 21:36N 30°06' W 118°22'110.8
2017-Nov-19 21:30N 30°06' W 118°23'6310.4
2017-Nov-19 15:27N 31°09' W 118°30'3 5.8
2017-Nov-19 15:00N 31°06' W 118°30'1818.5 320 / 171022.110.8 19.013.819.0
2017-Nov-19 14:03N 31°23' W 118°25'210.8
2017-Nov-19 13:52N 31°25' W 118°24'1211.0
2017-Nov-19 12:46N 31°36' W 118°18'311.2
2017-Nov-19 12:30N 31°39' W 118°17'611.4
2017-Nov-19 11:59N 31°44' W 118°14'811.1
2017-Nov-19 11:18N 31°51' W 118°10'6031976.5
2017-Nov-19 11:00N 21°48' W 118°12'6091779.5 330 / 201019.310.8 16.514.919.0
2017-Nov-19 10:39N 31°57' W 118°07'311.3
2017-Nov-19 10:24N 31°60' W 118°05'411.0
2017-Nov-19 10:00N 32°04' W 118°03'611.4
2017-Nov-19 09:30N 32°09' W 118°01'714.9
2017-Nov-19 09:01N 32°16' W 117°57'815.3
2017-Nov-19 08:31N 32°23' W 117°54'815.4
2017-Nov-19 08:00N 32°30' W 117°50'713.8
2017-Nov-19 07:30N 32°37' W 117°48'5 9.3
2017-Nov-19 07:00N 32°41' W 117°51'5555.9
2017-Nov-19 07:00N 32°36' W 117°48'1020.6 310 / 121019.310.8 18.014.818.0
2017-Nov-19 06:30N 32°44' W 117°54'5 9.6
2017-Nov-19 06:00N 32°49' W 117°56'5 9.6
2017-Nov-19 05:30N 32°53' W 117°58'5 9.7
2017-Nov-19 05:00N 32°58' W 118°01'5 9.6
2017-Nov-19 04:30N 33°02' W 118°04'5 9.7
2017-Nov-19 04:00N 33°06' W 118°07'5 9.7
2017-Nov-19 03:30N 33°10' W 118°10'510.0
2017-Nov-19 03:00N 33°15' W 118°12'510.2
2017-Nov-19 02:30N 33°19' W 118°15'4 7.0
2017-Nov-19 02:00N 33°21' W 118°19'0 0.2
2017-Nov-19 01:29N 33°21' W 118°19'0 0.0
2017-Nov-19 00:10N 33°21' W 118°19'0 0.0
2017-Nov-18 23:58N 33°21' W 118°19'0 0.0
2017-Nov-18 23:22N 33°21' W 118°19'0 0.0
2017-Nov-18 22:03N 33°21' W 118°19'0 0.0
2017-Nov-18 21:57N 33°21' W 118°19'0 0.0
2017-Nov-18 19:14N 33°21' W 118°19'1 0.1
2017-Nov-18 14:24N 33°21' W 118°18'4 9.3
2017-Nov-18 14:00N 33°19' W 118°15'712.3
2017-Nov-18 13:28N 33°12' W 118°12'612.5
2017-Nov-18 12:59N 33°07' W 118°10'612.7
2017-Nov-18 12:30N 33°01' W 118°08'510.5
2017-Nov-18 12:00N 32°56' W 118°06'9575.4
2017-Nov-18 12:00N 32°48' W 118°00'510.3 300 / 141019.727.0 16.712.817.0
2017-Nov-18 11:31N 32°51' W 118°04'5 9.4
2017-Nov-18 11:00N 32°47' W 118°03'5 9.2
2017-Nov-18 10:31N 32°43' W 118°01'5 8.8
2017-Nov-18 09:55N 32°44' W 117°55'4 9.9
2017-Nov-18 09:30N 32°47' W 117°51'5 9.7
2017-Nov-18 09:00N 32°50' W 117°47'5 9.5
2017-Nov-18 08:30N 32°51' W 117°41'5 9.7
2017-Nov-18 08:00N 32°53' W 117°36'4 8.5
2017-Nov-18 07:30N 32°57' W 117°34'5 9.6
2017-Nov-18 07:01N 33°01' W 117°37'5 9.4
2017-Nov-18 06:31N 33°05' W 117°40'5 9.7
2017-Nov-18 06:00N 33°09' W 117°43'5 9.7
2017-Nov-18 05:30N 33°13' W 117°46'5 9.4
2017-Nov-18 05:01N 33°14' W 117°52'5 9.7
2017-Nov-18 04:30N 33°14' W 117°57'5 9.5
2017-Nov-18 04:00N 33°15' W 118°03'5 9.6
2017-Nov-18 03:30N 33°19' W 118°06'1510.0
2017-Nov-18 02:01N 33°33' W 118°12'010.0
2017-Nov-18 01:58N 33°33' W 118°12'4 9.6
2017-Nov-18 01:30N 33°37' W 118°14'8 0.6
2017-Nov-17 11:54N 33°45' W 118°16'2 4.1
2017-Nov-17 11:29N 33°43' W 118°16'4 8.7
2017-Nov-17 11:01N 33°40' W 118°13'611.2
2017-Nov-17 10:30N 33°35' W 118°09'1018.7
2017-Nov-17 09:59N 33°26' W 118°05'1122.4
2017-Nov-17 09:30N 33°16' W 117°60'1122.3
2017-Nov-17 09:00N 33°06' W 117°55'1122.5
2017-Nov-17 08:30N 32°55' W 117°50'1122.6
2017-Nov-17 08:01N 32°45' W 117°46'1122.6
2017-Nov-17 07:30N 32°34' W 117°42'1121.8
2017-Nov-17 07:00N 32°23' W 117°38'1020.3
2017-Nov-17 06:30N 32°14' W 117°34'1019.9
2017-Nov-17 06:00N 32°05' W 117°30'714.8
2017-Nov-17 05:30N 31°58' W 117°28'2621.8
2017-Nov-17 04:20N 31°33' W 117°18'1622.0
2017-Nov-17 03:37N 31°19' W 117°12'721.9
2017-Nov-17 03:17N 31°11' W 117°09'622.2
2017-Nov-17 03:01N 31°06' W 117°07'1122.3
2017-Nov-17 02:30N 30°55' W 117°03'1122.4
2017-Nov-17 02:01N 30°44' W 116°59'1122.3
2017-Nov-17 01:30N 30°34' W 116°55'3121.6
2017-Nov-17 00:06N 30°05' W 116°44'418.4
2017-Nov-16 23:51N 30°01' W 116°42'618.6
2017-Nov-16 23:30N 29°55' W 116°40'1218.7
2017-Nov-16 22:51N 29°43' W 116°35'618.8
2017-Nov-16 22:30N 29°37' W 116°33'714.0
2017-Nov-16 22:00N 29°30' W 116°30'9022.4 300 / 161013.210.8 20.017.720.0
2017-Nov-16 18:00N 28°06' W 115°54'15922.6 350 / 71015.210.8 19.018.219.0
2017-Nov-16 11:00N 26°00' W 114°06'9819.6 310 / 81012.610.8 20.519.821.0
2017-Nov-16 06:00N 24°42' W 113°00'49 1.1 340 / 101013.410.8 23.021.623.0
2017-Nov-14 11:00N 24°06' W 112°24'16720.8 310 / 71013.310.8 22.521.124.0
2017-Nov-14 02:59N 26°16' W 114°18'3821.6
2017-Nov-14 01:14N 26°46' W 114°44'1421.4
2017-Nov-14 00:34N 26°57' W 114°54'2621.4
2017-Nov-13 23:20N 27°19' W 115°12'721.6
2017-Nov-13 23:00N 27°24' W 115°17'1121.5
2017-Nov-13 22:30N 27°33' W 115°25'3 5.0
2017-Nov-13 22:00N 27°30' W 115°24'9724.1 340 / 221015.510.8 19.518.020.0
2017-Nov-13 18:00N 28°54' W 116°18'15121.6 330 / 221018.510.8 21.017.220.0
2017-Nov-13 11:00N 31°18' W 117°12'7619.1 340 / 221018.310.8 18.015.619.0
2017-Nov-13 07:00N 32°30' W 117°42'80 5.3 310 / 101019.110.8 18.014.819.0
2017-Nov-12 15:49N 33°45' W 118°17'0 0.0
2017-Nov-12 15:01N 33°45' W 118°17'0 0.4
2017-Nov-12 15:00N 33°45' W 118°17'5 4.6
2017-Nov-12 13:56N 33°41' W 118°14'510.9
2017-Nov-12 13:30N 33°37' W 118°11'613.0
2017-Nov-12 13:00N 33°31' W 118°08'713.5
2017-Nov-12 12:30N 33°24' W 118°05'714.4
2017-Nov-12 12:00N 33°18' W 118°02'815.7
2017-Nov-12 11:30N 33°10' W 117°58'815.3
2017-Nov-12 11:00N 33°04' W 117°54'918.5
2017-Nov-12 10:30N 32°55' W 117°51'1020.3
2017-Nov-12 10:00N 32°45' W 117°47'1020.1
2017-Nov-12 09:30N 32°36' W 117°43'1019.2
2017-Nov-12 09:00N 32°26' W 117°40'918.8
2017-Nov-12 08:30N 32°18' W 117°36'918.3
2017-Nov-12 08:00N 32°09' W 117°32'918.6
2017-Nov-12 07:30N 32°01' W 117°28'1019.4
2017-Nov-12 07:00N 31°51' W 117°25'1120.1
2017-Nov-12 06:28N 31°41' W 117°21'1123.2
2017-Nov-12 06:00N 31°30' W 117°18'148.7 320 / 261017.610.8 18.014.819.0
2017-Nov-12 05:58N 31°31' W 117°17'1819.6
2017-Nov-12 05:03N 31°14' W 117°11'119.7
2017-Nov-12 05:00N 31°13' W 117°11'1319.1
2017-Nov-12 04:20N 31°01' W 117°06'1119.6
2017-Nov-12 03:47N 30°51' W 117°02'12321.2
2017-Nov-11 22:00N 28°54' W 116°18'6920.5 330 / 221014.610.8 19.013.821.0
2017-Nov-11 18:38N 27°53' W 115°42'521.0
2017-Nov-11 18:24N 27°49' W 115°39'1025.8
2017-Nov-11 18:00N 27°42' W 115°30'7621.4 360 / 261016.810.8 19.014.220.0
2017-Nov-11 14:26N 26°41' W 114°39'1522.1
2017-Nov-11 13:45N 26°29' W 114°29'17422.4
2017-Nov-11 06:00N 24°12' W 112°30'7819.4 330 / 171013.910.8 22.019.024.0
2017-Nov-11 02:00N 23°12' W 111°36'19910.0 300 / 171012.910.8 24.021.029.0
2017-Nov-10 06:00N 23°00' W 108°00'21052.4 330 / 221011.410.8 27.022.129.0
2017-Nov-10 02:00N 20°06' W 105°54'   340 / 151010.810.8 28.024.430.0
Track history (hours):
 
Tides and Currents Weather Stations Pressure Air Temp Water Temp Dewpoint Dewpoint Depression Visibility Wind Speed Wind Dir Waves Ship Positions

Emerald Princess

Last reported at 2017-Nov-19 23:00 UTC. Time now 2017-Nov-20 03:58 UTC.
Position N 30°06' W 117°54'.

Type: Ship. MMSI: 310531000.

Wind from 330 at 20 knots

Barometer 1014.9 mb
Air temperature 17.5 ° C
Visibility: greater than 10.8 NM
Dewpoint 15.1 ° C
Water temperature 19.0 ° C

Date/timePositionNaut miles runAvg speedWind from/ knotsBaromVisibWave heightAir tempDewpointWater temp
2017-Nov-19 23:00N 30°06' W 117°54'2417.2 330 / 201014.910.8 17.515.119.0
2017-Nov-19 21:36N 30°06' W 118°22'110.8
2017-Nov-19 21:30N 30°06' W 118°23'6310.4
2017-Nov-19 15:27N 31°09' W 118°30'3 5.8
2017-Nov-19 15:00N 31°06' W 118°30'1818.5 320 / 171022.110.8 19.013.819.0
2017-Nov-19 14:03N 31°23' W 118°25'210.8
2017-Nov-19 13:52N 31°25' W 118°24'1211.0
2017-Nov-19 12:46N 31°36' W 118°18'311.2
2017-Nov-19 12:30N 31°39' W 118°17'611.4
2017-Nov-19 11:59N 31°44' W 118°14'811.1
2017-Nov-19 11:18N 31°51' W 118°10'6031976.5
2017-Nov-19 11:00N 21°48' W 118°12'6091779.5 330 / 201019.310.8 16.514.919.0
2017-Nov-19 10:39N 31°57' W 118°07'311.3
2017-Nov-19 10:24N 31°60' W 118°05'411.0
2017-Nov-19 10:00N 32°04' W 118°03'611.4
2017-Nov-19 09:30N 32°09' W 118°01'714.9
2017-Nov-19 09:01N 32°16' W 117°57'815.3
2017-Nov-19 08:31N 32°23' W 117°54'815.4
2017-Nov-19 08:00N 32°30' W 117°50'713.8
2017-Nov-19 07:30N 32°37' W 117°48'5 9.3
2017-Nov-19 07:00N 32°41' W 117°51'5555.9
2017-Nov-19 07:00N 32°36' W 117°48'1020.6 310 / 121019.310.8 18.014.818.0
2017-Nov-19 06:30N 32°44' W 117°54'5 9.6
2017-Nov-19 06:00N 32°49' W 117°56'5 9.6
2017-Nov-19 05:30N 32°53' W 117°58'5 9.7
2017-Nov-19 05:00N 32°58' W 118°01'5 9.6
2017-Nov-19 04:30N 33°02' W 118°04'5 9.7
2017-Nov-19 04:00N 33°06' W 118°07'5 9.7
2017-Nov-19 03:30N 33°10' W 118°10'510.0
2017-Nov-19 03:00N 33°15' W 118°12'510.2
2017-Nov-19 02:30N 33°19' W 118°15'4 7.0
2017-Nov-19 02:00N 33°21' W 118°19'0 0.2
2017-Nov-19 01:29N 33°21' W 118°19'0 0.0
2017-Nov-19 00:10N 33°21' W 118°19'0 0.0
2017-Nov-18 23:58N 33°21' W 118°19'0 0.0
2017-Nov-18 23:22N 33°21' W 118°19'0 0.0
2017-Nov-18 22:03N 33°21' W 118°19'0 0.0
2017-Nov-18 21:57N 33°21' W 118°19'0 0.0
2017-Nov-18 19:14N 33°21' W 118°19'1 0.1
2017-Nov-18 14:24N 33°21' W 118°18'4 9.3
2017-Nov-18 14:00N 33°19' W 118°15'712.3
2017-Nov-18 13:28N 33°12' W 118°12'612.5
2017-Nov-18 12:59N 33°07' W 118°10'612.7
2017-Nov-18 12:30N 33°01' W 118°08'510.5
2017-Nov-18 12:00N 32°56' W 118°06'9575.4
2017-Nov-18 12:00N 32°48' W 118°00'510.3 300 / 141019.727.0 16.712.817.0
2017-Nov-18 11:31N 32°51' W 118°04'5 9.4
2017-Nov-18 11:00N 32°47' W 118°03'5 9.2
2017-Nov-18 10:31N 32°43' W 118°01'5 8.8
2017-Nov-18 09:55N 32°44' W 117°55'4 9.9
2017-Nov-18 09:30N 32°47' W 117°51'5 9.7
2017-Nov-18 09:00N 32°50' W 117°47'5 9.5
2017-Nov-18 08:30N 32°51' W 117°41'5 9.7
2017-Nov-18 08:00N 32°53' W 117°36'4 8.5
2017-Nov-18 07:30N 32°57' W 117°34'5 9.6
2017-Nov-18 07:01N 33°01' W 117°37'5 9.4
2017-Nov-18 06:31N 33°05' W 117°40'5 9.7
2017-Nov-18 06:00N 33°09' W 117°43'5 9.7
2017-Nov-18 05:30N 33°13' W 117°46'5 9.4
2017-Nov-18 05:01N 33°14' W 117°52'5 9.7
2017-Nov-18 04:30N 33°14' W 117°57'5 9.5
2017-Nov-18 04:00N 33°15' W 118°03'5 9.6
2017-Nov-18 03:30N 33°19' W 118°06'1510.0
2017-Nov-18 02:01N 33°33' W 118°12'010.0
2017-Nov-18 01:58N 33°33' W 118°12'4 9.6
2017-Nov-18 01:30N 33°37' W 118°14'8 0.6
2017-Nov-17 11:54N 33°45' W 118°16'2 4.1
2017-Nov-17 11:29N 33°43' W 118°16'4 8.7
2017-Nov-17 11:01N 33°40' W 118°13'611.2
2017-Nov-17 10:30N 33°35' W 118°09'1018.7
2017-Nov-17 09:59N 33°26' W 118°05'1122.4
2017-Nov-17 09:30N 33°16' W 117°60'1122.3
2017-Nov-17 09:00N 33°06' W 117°55'1122.5
2017-Nov-17 08:30N 32°55' W 117°50'1122.6
2017-Nov-17 08:01N 32°45' W 117°46'1122.6
2017-Nov-17 07:30N 32°34' W 117°42'1121.8
2017-Nov-17 07:00N 32°23' W 117°38'1020.3
2017-Nov-17 06:30N 32°14' W 117°34'1019.9
2017-Nov-17 06:00N 32°05' W 117°30'714.8
2017-Nov-17 05:30N 31°58' W 117°28'2621.8
2017-Nov-17 04:20N 31°33' W 117°18'1622.0
2017-Nov-17 03:37N 31°19' W 117°12'721.9
2017-Nov-17 03:17N 31°11' W 117°09'622.2
2017-Nov-17 03:01N 31°06' W 117°07'1122.3
2017-Nov-17 02:30N 30°55' W 117°03'1122.4
2017-Nov-17 02:01N 30°44' W 116°59'1122.3
2017-Nov-17 01:30N 30°34' W 116°55'3121.6
2017-Nov-17 00:06N 30°05' W 116°44'418.4
2017-Nov-16 23:51N 30°01' W 116°42'618.6
2017-Nov-16 23:30N 29°55' W 116°40'1218.7
2017-Nov-16 22:51N 29°43' W 116°35'618.8
2017-Nov-16 22:30N 29°37' W 116°33'714.0
2017-Nov-16 22:00N 29°30' W 116°30'9022.4 300 / 161013.210.8 20.017.720.0
2017-Nov-16 18:00N 28°06' W 115°54'15922.6 350 / 71015.210.8 19.018.219.0
2017-Nov-16 11:00N 26°00' W 114°06'9819.6 310 / 81012.610.8 20.519.821.0
2017-Nov-16 06:00N 24°42' W 113°00'49 1.1 340 / 101013.410.8 23.021.623.0
2017-Nov-14 11:00N 24°06' W 112°24'16720.8 310 / 71013.310.8 22.521.124.0
2017-Nov-14 02:59N 26°16' W 114°18'3821.6
2017-Nov-14 01:14N 26°46' W 114°44'1421.4
2017-Nov-14 00:34N 26°57' W 114°54'2621.4
2017-Nov-13 23:20N 27°19' W 115°12'721.6
2017-Nov-13 23:00N 27°24' W 115°17'1121.5
2017-Nov-13 22:30N 27°33' W 115°25'3 5.0
2017-Nov-13 22:00N 27°30' W 115°24'9724.1 340 / 221015.510.8 19.518.020.0
2017-Nov-13 18:00N 28°54' W 116°18'15121.6 330 / 221018.510.8 21.017.220.0
2017-Nov-13 11:00N 31°18' W 117°12'7619.1 340 / 221018.310.8 18.015.619.0
2017-Nov-13 07:00N 32°30' W 117°42'80 5.3 310 / 101019.110.8 18.014.819.0
2017-Nov-12 15:49N 33°45' W 118°17'0 0.0
2017-Nov-12 15:01N 33°45' W 118°17'0 0.4
2017-Nov-12 15:00N 33°45' W 118°17'5 4.6
2017-Nov-12 13:56N 33°41' W 118°14'510.9
2017-Nov-12 13:30N 33°37' W 118°11'613.0
2017-Nov-12 13:00N 33°31' W 118°08'713.5
2017-Nov-12 12:30N 33°24' W 118°05'714.4
2017-Nov-12 12:00N 33°18' W 118°02'815.7
2017-Nov-12 11:30N 33°10' W 117°58'815.3
2017-Nov-12 11:00N 33°04' W 117°54'918.5
2017-Nov-12 10:30N 32°55' W 117°51'1020.3
2017-Nov-12 10:00N 32°45' W 117°47'1020.1
2017-Nov-12 09:30N 32°36' W 117°43'1019.2
2017-Nov-12 09:00N 32°26' W 117°40'918.8
2017-Nov-12 08:30N 32°18' W 117°36'918.3
2017-Nov-12 08:00N 32°09' W 117°32'918.6
2017-Nov-12 07:30N 32°01' W 117°28'1019.4
2017-Nov-12 07:00N 31°51' W 117°25'1120.1
2017-Nov-12 06:28N 31°41' W 117°21'1123.2
2017-Nov-12 06:00N 31°30' W 117°18'148.7 320 / 261017.610.8 18.014.819.0
2017-Nov-12 05:58N 31°31' W 117°17'1819.6
2017-Nov-12 05:03N 31°14' W 117°11'119.7
2017-Nov-12 05:00N 31°13' W 117°11'1319.1
2017-Nov-12 04:20N 31°01' W 117°06'1119.6
2017-Nov-12 03:47N 30°51' W 117°02'12321.2
2017-Nov-11 22:00N 28°54' W 116°18'6920.5 330 / 221014.610.8 19.013.821.0
2017-Nov-11 18:38N 27°53' W 115°42'521.0
2017-Nov-11 18:24N 27°49' W 115°39'1025.8
2017-Nov-11 18:00N 27°42' W 115°30'7621.4 360 / 261016.810.8 19.014.220.0
2017-Nov-11 14:26N 26°41' W 114°39'1522.1
2017-Nov-11 13:45N 26°29' W 114°29'17422.4
2017-Nov-11 06:00N 24°12' W 112°30'7819.4 330 / 171013.910.8 22.019.024.0
2017-Nov-11 02:00N 23°12' W 111°36'19910.0 300 / 171012.910.8 24.021.029.0
2017-Nov-10 06:00N 23°00' W 108°00'21052.4 330 / 221011.410.8 27.022.129.0
2017-Nov-10 02:00N 20°06' W 105°54'   340 / 151010.810.8 28.024.430.0

Dump ship's entire track history